Time;durP1;ratioP1;P1;durP2;ratioP2;P2;SDS_P1;SDS_P2;PMS_P1;PMS_P2;Temp;Humidity;BMP_temperature;BMP_pressure;BME280_temperature;BME280_humidity;BME280_pressure;Samples;Min_cycle;Max_cycle;Signal;HPM_P1;HPM_P2
2022/07/15 07:59:02;;;;;;;4.63;1.30;;;;;;;16.97;56.57;102213.81;5295951;27;20357;-76
2022/07/15 08:01:34;;;;;;;2.50;1.08;;;;;;;17.03;55.98;102212.63;5281274;28;20549;-76
2022/07/15 08:04:05;;;;;;;5.00;1.33;;;;;;;17.21;57.11;102211.00;5298112;28;20024;-76
2022/07/15 08:06:38;;;;;;;16.70;13.25;;;;;;;17.16;57.58;102225.91;5301376;28;20032;-76
2022/07/15 08:09:09;;;;;;;3.13;1.55;;;;;;;17.21;56.94;102223.03;5296422;28;20039;-78
2022/07/15 08:11:44;;;;;;;4.18;1.60;;;;;;;17.17;57.11;102219.97;5279232;28;20021;-77
2022/07/15 08:14:16;;;;;;;9.57;6.47;;;;;;;17.28;56.27;102220.69;5280023;28;20025;-77
2022/07/15 08:16:47;;;;;;;6.65;3.20;;;;;;;17.34;55.20;102219.47;5287699;28;20082;-75
2022/07/15 08:19:19;;;;;;;2.90;1.38;;;;;;;17.36;54.19;102217.22;5298781;28;20020;-78
2022/07/15 08:21:53;;;;;;;3.72;1.05;;;;;;;17.51;54.61;102223.69;5300888;28;20052;-76
2022/07/15 08:24:24;;;;;;;1.70;1.08;;;;;;;17.53;53.92;102221.44;5299777;28;20093;-78
2022/07/15 08:26:56;;;;;;;4.97;1.63;;;;;;;17.45;56.00;102224.94;5299720;28;20464;-74
2022/07/15 08:29:27;;;;;;;4.88;1.10;;;;;;;17.54;57.19;102223.13;5295331;28;20036;-75
2022/07/15 08:31:59;;;;;;;3.05;1.77;;;;;;;17.64;55.79;102224.91;5299654;28;20020;-77
2022/07/15 08:34:30;;;;;;;5.00;1.85;;;;;;;17.85;55.11;102228.28;5284357;28;20033;-76
2022/07/15 08:37:02;;;;;;;4.35;1.60;;;;;;;18.04;53.34;102229.06;5294916;28;20468;-76
2022/07/15 08:39:33;;;;;;;19.15;12.98;;;;;;;18.07;53.33;102220.03;5299562;28;20028;-76
2022/07/15 08:42:05;;;;;;;46.90;32.22;;;;;;;18.06;50.93;102228.75;5300265;28;20456;-75
2022/07/15 08:44:40;;;;;;;4.20;2.70;;;;;;;18.18;52.04;102213.09;5299535;28;20036;-74
2022/07/15 08:47:12;;;;;;;3.20;2.20;;;;;;;18.53;54.11;102215.53;5294018;28;20492;-75
2022/07/15 08:49:47;;;;;;;17.40;15.65;;;;;;;18.62;51.73;102211.69;5278992;28;20021;-75
2022/07/15 08:52:19;;;;;;;6.10;4.20;;;;;;;18.55;51.23;102211.28;5285184;28;20496;-75
2022/07/15 08:54:51;;;;;;;5.93;3.67;;;;;;;18.76;51.27;102208.91;5298992;28;20138;-75
2022/07/15 08:57:22;;;;;;;4.47;3.08;;;;;;;18.95;52.12;102211.63;5292021;28;20439;-72
2022/07/15 08:59:54;;;;;;;3.70;1.80;;;;;;;18.89;49.89;102208.09;5299408;28;20024;-71
2022/07/15 09:02:25;;;;;;;7.22;1.45;;;;;;;18.92;50.55;102211.41;5300093;28;20043;-73
2022/07/15 09:05:18;;;;;;;4.60;2.30;;;;;;;19.00;50.24;102210.69;5314586;28;20031;-72
2022/07/15 09:08:11;;;;;;;4.78;2.00;;;;;;;19.28;49.47;102208.66;5306902;28;20365;-73
2022/07/15 09:10:43;;;;;;;8.48;5.78;;;;;;;19.01;50.46;102201.09;5301182;28;20021;-75
2022/07/15 09:13:27;;;;;;;7.13;3.15;;;;;;;19.07;50.03;102200.69;5306882;28;20024;-77
2022/07/15 09:16:04;;;;;;;4.22;1.48;;;;;;;19.14;49.13;102196.59;5307194;28;20386;-75
2022/07/15 09:18:43;;;;;;;1.73;1.30;;;;;;;19.11;50.79;102193.25;5300914;28;20082;-75
2022/07/15 09:21:26;;;;;;;4.88;1.40;;;;;;;19.58;49.92;102189.38;5286586;28;20087;-77
2022/07/15 09:24:17;;;;;;;6.20;1.63;;;;;;;19.54;48.90;102194.84;5297050;28;20020;-76
2022/07/15 09:26:48;;;;;;;2.70;1.20;;;;;;;19.34;48.31;102191.34;5291140;28;20204;-77
2022/07/15 09:38:10;;;;;;;4.00;1.20;;;;;;;19.16;49.33;102202.75;5305573;28;20119;-72
2022/07/15 09:40:48;;;;;;;4.75;1.10;;;;;;;19.27;48.91;102201.34;5305144;28;20099;-75
2022/07/15 09:43:19;;;;;;;4.00;1.10;;;;;;;19.30;48.03;102195.94;5304351;28;20490;-75
2022/07/15 09:46:00;;;;;;;2.58;0.85;;;;;;;19.34;47.70;102198.94;5305789;28;20020;-74
2022/07/15 09:48:39;;;;;;;2.72;1.10;;;;;;;19.42;47.33;102192.56;5302460;28;20028;-73
2022/07/15 09:51:11;;;;;;;5.97;1.60;;;;;;;19.49;47.44;102194.94;5285100;28;20373;-75
2022/07/15 09:53:43;;;;;;;4.88;1.45;;;;;;;19.48;47.39;102190.47;5285689;28;20078;-75
2022/07/15 09:56:21;;;;;;;4.55;1.33;;;;;;;19.44;45.65;102190.28;5284363;28;20020;-75
2022/07/15 09:58:52;;;;;;;2.20;1.10;;;;;;;19.42;46.51;102197.38;5293735;28;20048;-74
2022/07/15 10:01:25;;;;;;;2.83;1.30;;;;;;;19.57;48.27;102193.38;5302450;28;20024;-76
2022/07/15 10:03:57;;;;;;;6.10;1.13;;;;;;;19.53;46.86;102190.34;5304214;28;20051;-77
2022/07/15 10:06:28;;;;;;;4.93;1.92;;;;;;;19.48;47.43;102182.00;5287211;28;20521;-78
2022/07/15 10:09:00;;;;;;;5.90;1.20;;;;;;;19.71;47.45;102182.91;5292010;28;20035;-77
2022/07/15 10:11:36;;;;;;;7.63;4.72;;;;;;;19.79;47.90;102179.34;5305096;28;20417;-76
2022/07/15 10:14:45;;;;;;;7.90;3.03;;;;;;;20.01;47.79;102188.91;5305803;28;20382;-75
2022/07/15 10:17:44;;;;;;;4.10;1.63;;;;;;;19.94;48.61;102170.50;5310022;28;20092;-76
2022/07/15 10:20:37;;;;;;;4.35;1.67;;;;;;;20.09;47.02;102176.84;5283552;28;20136;-74
2022/07/15 10:23:53;;;;;;;5.00;0.95;;;;;;;20.04;46.35;102177.81;5284857;28;20068;-74
2022/07/15 10:26:47;;;;;;;3.42;2.63;;;;;;;20.13;46.04;102169.44;5294072;28;20032;-71
2022/07/15 10:29:19;;;;;;;7.28;4.30;;;;;;;20.13;45.36;102169.44;5305707;28;20099;-74
2022/07/15 10:31:59;;;;;;;5.35;2.80;;;;;;;20.17;46.25;102173.25;5303695;28;20173;-78
2022/07/15 10:34:33;;;;;;;7.65;2.63;;;;;;;20.36;45.02;102162.59;5284557;28;20437;-77
2022/07/15 10:37:12;;;;;;;6.07;1.75;;;;;;;20.36;44.72;102171.03;5305230;28;20023;-81
2022/07/15 10:39:51;;;;;;;3.22;2.90;;;;;;;20.32;45.05;102164.38;5300144;28;20024;-85
2022/07/15 10:42:24;;;;;;;4.15;2.58;;;;;;;20.25;45.41;102157.56;5306256;28;20024;-81
2022/07/15 10:44:58;;;;;;;6.47;1.48;;;;;;;20.23;45.83;102163.53;5303936;28;20024;-73
2022/07/15 10:47:30;;;;;;;3.88;1.40;;;;;;;20.34;46.25;102156.44;5302878;28;20028;-72
2022/07/15 10:50:38;;;;;;;4.30;1.13;;;;;;;20.59;43.73;102169.00;5303767;28;20103;-73
2022/07/15 10:53:19;;;;;;;2.42;1.00;;;;;;;20.49;43.64;102157.19;5301481;28;20028;-73
2022/07/15 10:55:51;;;;;;;2.63;1.10;;;;;;;20.50;43.01;102156.00;5292352;28;20060;-70
2022/07/15 10:58:22;;;;;;;6.45;4.47;;;;;;;20.63;43.58;102146.63;5285526;28;20044;-72
2022/07/15 11:00:54;;;;;;;4.32;1.30;;;;;;;20.69;43.79;102147.34;5303382;28;20028;-73
2022/07/15 11:03:25;;;;;;;3.08;1.58;;;;;;;20.57;45.57;102139.50;5304028;28;20479;-72
2022/07/15 11:06:08;;;;;;;2.42;1.10;;;;;;;20.70;45.14;102144.16;5302205;28;20040;-71
2022/07/15 11:08:43;;;;;;;2.95;1.20;;;;;;;20.42;44.67;102140.72;5304317;28;20027;-71
2022/07/15 11:11:15;;;;;;;3.10;1.10;;;;;;;20.57;44.95;102137.50;5304820;28;20036;-71
2022/07/15 11:13:48;;;;;;;2.15;1.35;;;;;;;20.96;44.22;102137.75;5303584;28;20050;-70
2022/07/15 11:16:20;;;;;;;3.42;1.20;;;;;;;20.67;43.54;102138.38;5304577;28;20046;-70
2022/07/15 11:18:57;;;;;;;4.78;0.90;;;;;;;20.57;43.97;102142.31;5304566;28;20039;-71
2022/07/15 11:21:28;;;;;;;2.90;1.45;;;;;;;20.51;44.22;102137.97;5303337;28;20119;-71
2022/07/15 11:24:00;;;;;;;4.60;1.30;;;;;;;20.98;44.13;102133.44;5303970;28;20444;-70
2022/07/15 11:26:48;;;;;;;4.05;1.13;;;;;;;20.83;43.55;102129.09;5304215;28;20081;-71
2022/07/15 11:29:19;;;;;;;3.75;1.38;;;;;;;20.89;43.49;102131.75;5297970;28;20472;-71
2022/07/15 11:31:51;;;;;;;3.47;1.17;;;;;;;21.11;42.90;102130.81;5282558;28;20029;-71
2022/07/15 11:34:23;;;;;;;5.07;1.35;;;;;;;21.25;43.85;102123.84;5291472;28;20020;-72
2022/07/15 11:36:58;;;;;;;4.18;2.58;;;;;;;21.19;43.30;102113.91;5303652;28;20024;-74
2022/07/15 11:39:30;;;;;;;11.57;10.43;;;;;;;21.33;42.76;102121.38;5303930;28;20028;-72
2022/07/15 11:44:55;;;;;;;2.10;0.90;;;;;;;21.53;42.50;102117.06;5261739;28;20029;-75
2022/07/15 11:47:26;;;;;;;3.33;1.05;;;;;;;21.52;42.34;102113.41;5303332;28;20020;-74
2022/07/15 11:50:04;;;;;;;3.33;1.02;;;;;;;21.51;42.04;102113.75;5302378;28;20032;-74
2022/07/15 11:52:36;;;;;;;7.55;3.75;;;;;;;21.61;42.13;102114.22;5290613;28;20073;-76
2022/07/15 11:55:07;;;;;;;3.42;1.00;;;;;;;21.84;42.98;102114.03;5297405;28;20457;-75
2022/07/15 11:57:45;;;;;;;22.13;20.00;;;;;;;21.90;42.20;102105.03;5296548;28;20403;-74
2022/07/15 12:00:16;;;;;;;2.47;0.95;;;;;;;21.69;40.97;102110.56;5290016;28;20020;-75
2022/07/15 12:02:47;;;;;;;3.30;1.38;;;;;;;21.78;41.02;102104.91;5299146;28;20040;-76
2022/07/15 12:05:19;;;;;;;3.97;1.02;;;;;;;21.91;41.23;102098.22;5291571;28;20024;-78
2022/07/15 12:07:51;;;;;;;1.38;0.90;;;;;;;21.74;40.87;102111.56;5288726;28;20038;-79
2022/07/15 12:10:37;;;;;;;83.63;69.80;;;;;;;21.51;41.12;102103.28;5289535;28;20021;-76
2022/07/15 12:13:09;;;;;;;36.58;29.83;;;;;;;21.28;41.41;102105.44;5300934;28;20077;-77
2022/07/15 12:15:40;;;;;;;3.90;2.35;;;;;;;21.26;41.75;102097.28;5297543;28;20448;-74
2022/07/15 12:18:11;;;;;;;23.00;18.92;;;;;;;21.31;42.12;102103.94;5296348;28;20059;-76
2022/07/15 12:20:43;;;;;;;4.70;1.52;;;;;;;21.46;42.62;102095.00;5303451;28;20532;-76
2022/07/15 12:23:17;;;;;;;4.90;2.47;;;;;;;21.40;42.30;102096.34;5302919;28;20022;-76
2022/07/15 12:25:48;;;;;;;2.97;1.10;;;;;;;21.56;42.90;102102.28;5301301;28;20036;-76
2022/07/15 12:28:30;;;;;;;3.10;1.70;;;;;;;21.84;41.91;102102.72;5290323;28;20609;-76
2022/07/15 12:31:03;;;;;;;4.38;1.70;;;;;;;21.92;41.08;102107.53;5295775;28;20035;-77
2022/07/15 12:33:35;;;;;;;1.70;0.93;;;;;;;21.81;41.31;102100.59;5302633;28;20024;-77
2022/07/15 12:36:18;;;;;;;2.80;1.30;;;;;;;21.93;40.76;102098.72;5300504;28;20127;-77
2022/07/15 12:39:10;;;;;;;2.85;1.20;;;;;;;21.80;41.87;102101.72;5300329;28;20359;-77
2022/07/15 12:41:45;;;;;;;2.60;0.88;;;;;;;21.62;41.73;102104.59;5289946;28;20150;-77
2022/07/15 12:44:16;;;;;;;2.55;0.95;;;;;;;21.71;41.80;102098.94;5299424;28;20024;-77
2022/07/15 12:46:51;;;;;;;4.80;1.27;;;;;;;21.73;41.63;102105.09;5306606;28;20114;-74
2022/07/15 12:49:50;;;;;;;4.25;1.30;;;;;;;21.73;40.95;102109.88;5295313;28;20025;-78
2022/07/15 12:52:29;;;;;;;25.17;22.50;;;;;;;21.58;41.19;102117.72;5300118;28;20028;-76
2022/07/15 12:55:12;;;;;;;47.03;42.50;;;;;;;21.64;41.73;102107.91;5300751;28;20095;-77
2022/07/15 12:57:44;;;;;;;3.78;3.10;;;;;;;21.62;41.58;102120.69;5306674;28;20128;-77
2022/07/15 13:00:20;;;;;;;3.05;0.90;;;;;;;21.55;42.12;102114.72;5305977;28;20076;-77
2022/07/15 13:03:10;;;;;;;3.85;0.90;;;;;;;21.39;42.04;102118.06;5307230;28;20464;-77
2022/07/15 13:05:43;;;;;;;6.18;2.78;;;;;;;21.40;41.92;102110.44;5305906;28;20907;-78
2022/07/15 13:08:21;;;;;;;2.30;1.10;;;;;;;21.46;42.40;102103.47;5300214;28;20020;-80
2022/07/15 13:10:54;;;;;;;3.63;1.35;;;;;;;21.65;42.03;102108.72;5298478;28;20048;-79
2022/07/15 13:13:28;;;;;;;3.83;1.25;;;;;;;22.02;41.99;102100.69;5292048;28;20042;-81
2022/07/15 13:16:02;;;;;;;4.45;0.98;;;;;;;22.18;41.76;102098.94;5307287;28;20025;-78
2022/07/15 13:18:34;;;;;;;4.95;3.50;;;;;;;22.39;40.89;102087.72;5307787;28;20466;-78
2022/07/15 13:21:06;;;;;;;6.18;1.83;;;;;;;22.60;40.53;102093.47;5304927;28;20039;-79
2022/07/15 13:23:37;;;;;;;4.85;1.40;;;;;;;22.63;40.55;102089.13;5305842;28;20032;-78
2022/07/15 13:26:09;;;;;;;4.85;2.20;;;;;;;22.65;40.69;102096.09;5306358;28;20111;-78
2022/07/15 13:28:40;;;;;;;5.43;1.80;;;;;;;22.41;40.59;102091.06;5306162;28;20035;-77
2022/07/15 13:31:11;;;;;;;31.67;25.70;;;;;;;22.46;41.01;102088.03;5306715;28;20028;-76
2022/07/15 13:33:43;;;;;;;38.38;28.77;;;;;;;22.76;40.79;102086.03;5305815;28;20036;-76
2022/07/15 13:36:14;;;;;;;8.40;5.60;;;;;;;22.60;40.73;102087.81;5306430;28;20027;-77
2022/07/15 13:38:45;;;;;;;4.95;1.35;;;;;;;22.57;40.80;102089.31;5306506;28;20039;-78
2022/07/15 13:41:16;;;;;;;2.78;1.33;;;;;;;22.67;40.36;102081.59;5303949;28;20097;-78
2022/07/15 13:43:48;;;;;;;5.88;1.58;;;;;;;22.72;39.68;102084.22;5305993;28;20028;-80
2022/07/15 13:46:19;;;;;;;9.35;7.07;;;;;;;23.05;39.84;102087.16;5306332;28;20031;-80
2022/07/15 13:48:50;;;;;;;7.45;5.38;;;;;;;23.32;38.88;102080.13;5296190;28;20093;-78
2022/07/15 13:51:25;;;;;;;4.35;2.00;;;;;;;23.57;38.37;102072.53;5285634;28;20186;-78
2022/07/15 13:53:57;;;;;;;2.60;1.53;;;;;;;23.57;38.20;102080.19;5299960;28;20016;-79
2022/07/15 13:56:28;;;;;;;6.10;2.03;;;;;;;23.64;38.62;102069.13;5299402;28;20129;-78
2022/07/15 13:59:01;;;;;;;4.18;1.85;;;;;;;23.44;38.77;102077.34;5299300;28;20032;-79
2022/07/15 14:01:32;;;;;;;4.07;1.58;;;;;;;23.51;39.02;102075.94;5303578;28;20031;-78
2022/07/15 14:04:04;;;;;;;2.65;1.40;;;;;;;23.21;39.53;102078.88;5286227;28;20483;-78
2022/07/15 14:06:35;;;;;;;16.10;14.43;;;;;;;23.06;39.65;102073.84;5309089;28;20028;-77
2022/07/15 14:09:06;;;;;;;4.15;2.63;;;;;;;23.02;40.20;102075.72;5319142;28;20032;-78
2022/07/15 14:11:38;;;;;;;5.13;2.83;;;;;;;22.91;39.90;102078.94;5305161;28;20036;-77
2022/07/15 14:14:09;;;;;;;3.53;1.65;;;;;;;22.81;40.13;102070.84;5305044;28;20419;-78
2022/07/15 14:16:41;;;;;;;4.40;1.50;;;;;;;22.49;40.32;102064.72;5304518;28;20035;-76
2022/07/15 14:19:13;;;;;;;6.53;3.28;;;;;;;22.44;40.48;102069.75;5304203;28;20410;-76
2022/07/15 14:21:45;;;;;;;5.03;1.70;;;;;;;22.32;40.73;102076.16;5305697;28;20459;-74
2022/07/15 14:24:18;;;;;;;4.57;1.60;;;;;;;22.42;40.62;102072.09;5303565;28;20081;-76
2022/07/15 14:26:49;;;;;;;7.15;6.20;;;;;;;22.35;40.33;102081.13;5304402;28;20396;-75
2022/07/15 14:29:21;;;;;;;9.63;6.25;;;;;;;22.36;40.72;102071.47;5304599;28;20038;-77
2022/07/15 14:31:52;;;;;;;5.78;2.13;;;;;;;22.34;40.89;102068.16;5287040;28;20095;-78
2022/07/15 14:34:24;;;;;;;3.65;2.25;;;;;;;22.46;41.52;102068.25;5300322;28;20024;-78
2022/07/15 14:36:55;;;;;;;4.45;1.73;;;;;;;22.50;41.51;102069.22;5303236;28;20055;-77
2022/07/15 14:39:29;;;;;;;5.28;2.55;;;;;;;22.49;41.36;102072.38;5292786;28;20031;-79
2022/07/15 14:42:00;;;;;;;3.90;1.63;;;;;;;22.53;41.78;102065.72;5304586;28;20038;-76
2022/07/15 14:44:32;;;;;;;10.38;9.25;;;;;;;22.46;41.43;102064.59;5303444;28;20028;-78
2022/07/15 14:47:03;;;;;;;3.30;2.35;;;;;;;22.05;42.42;102064.09;5301887;28;20032;-77
2022/07/15 14:49:35;;;;;;;6.40;5.00;;;;;;;22.18;42.86;102064.22;5287609;28;20416;-77
2022/07/15 14:52:06;;;;;;;5.35;1.80;;;;;;;22.29;42.84;102060.72;5298490;28;20016;-78
2022/07/15 14:54:38;;;;;;;75.07;67.55;;;;;;;22.54;42.04;102060.88;5283826;28;20086;-78
2022/07/15 14:57:09;;;;;;;25.20;18.40;;;;;;;22.61;41.40;102049.88;5303685;28;20040;-78
2022/07/15 14:59:40;;;;;;;3.60;2.17;;;;;;;22.68;41.29;102049.34;5302190;28;20035;-79
2022/07/15 15:02:12;;;;;;;2.33;1.90;;;;;;;22.92;41.05;102057.94;5293486;28;20111;-76
2022/07/15 15:04:43;;;;;;;4.28;1.92;;;;;;;23.06;40.68;102054.03;5302194;28;20028;-78
2022/07/15 15:07:14;;;;;;;4.82;1.65;;;;;;;23.03;39.38;102055.56;5300295;28;20060;-76
2022/07/15 15:09:46;;;;;;;4.13;1.70;;;;;;;23.32;39.06;102048.97;5303176;28;20093;-75
2022/07/15 15:12:17;;;;;;;12.77;9.23;;;;;;;23.51;39.30;102051.28;5295196;28;20016;-80
2022/07/15 15:14:48;;;;;;;5.53;3.50;;;;;;;23.60;38.70;102051.19;5302514;28;20111;-80
2022/07/15 15:17:20;;;;;;;3.03;1.70;;;;;;;23.61;39.03;102052.84;5287558;28;20432;-76
2022/07/15 15:19:51;;;;;;;2.53;1.38;;;;;;;23.55;38.74;102049.41;5282513;28;20491;-78
2022/07/15 15:22:22;;;;;;;4.70;1.40;;;;;;;23.52;38.43;102047.28;5294647;28;20089;-80
2022/07/15 15:24:54;;;;;;;2.28;1.48;;;;;;;23.76;38.10;102043.72;5302877;28;20454;-80
2022/07/15 15:27:25;;;;;;;4.15;2.80;;;;;;;23.57;36.99;102032.91;5302354;28;20122;-81
2022/07/15 15:29:56;;;;;;;3.08;1.33;;;;;;;23.42;37.32;102034.41;5303717;28;20422;-78
2022/07/15 15:32:29;;;;;;;3.47;1.52;;;;;;;23.24;38.06;102032.91;5304037;28;20047;-79
2022/07/15 15:35:01;;;;;;;20.25;18.08;;;;;;;23.13;38.53;102029.66;5303129;28;20032;-80
2022/07/15 15:37:32;;;;;;;4.95;4.45;;;;;;;22.98;38.55;102019.84;5285470;28;20109;-77
2022/07/15 15:40:04;;;;;;;10.20;9.20;;;;;;;22.95;38.91;102020.47;5290676;28;20017;-77
2022/07/15 15:42:36;;;;;;;8.25;5.55;;;;;;;22.99;39.04;102021.50;5284048;28;20537;-77
2022/07/15 15:45:08;;;;;;;3.78;1.85;;;;;;;23.20;39.31;102020.63;5299076;28;20463;-79
2022/07/15 15:47:39;;;;;;;3.42;1.40;;;;;;;23.06;39.58;102012.44;5303411;28;20066;-78
2022/07/15 15:50:11;;;;;;;3.75;1.95;;;;;;;22.89;39.18;102013.41;5303914;28;20027;-78
2022/07/15 15:52:42;;;;;;;4.90;3.28;;;;;;;22.93;39.77;102017.19;5304732;28;20027;-79
2022/07/15 15:55:14;;;;;;;5.95;1.40;;;;;;;22.96;40.29;102010.03;5300233;28;20420;-79
2022/07/15 15:57:45;;;;;;;21.20;19.25;;;;;;;23.04;40.00;102011.97;5291329;28;20610;-80
2022/07/15 16:00:17;;;;;;;27.67;24.77;;;;;;;23.05;39.74;102015.63;5303457;28;20028;-80
2022/07/15 16:02:48;;;;;;;4.53;1.83;;;;;;;22.97;39.78;102025.84;5282516;28;20041;-80
2022/07/15 16:05:20;;;;;;;2.75;1.55;;;;;;;22.96;39.48;102024.97;5282650;28;20044;-80
2022/07/15 16:07:51;;;;;;;2.63;1.50;;;;;;;22.83;39.94;102019.59;5302603;28;20020;-79
2022/07/15 16:10:22;;;;;;;4.00;2.33;;;;;;;22.80;40.46;102006.97;5294040;28;20063;-78
2022/07/15 16:12:54;;;;;;;3.72;1.67;;;;;;;22.77;40.24;102004.84;5303496;28;20057;-79
2022/07/15 16:15:25;;;;;;;2.83;2.05;;;;;;;22.70;40.14;102004.56;5301750;28;20039;-79
2022/07/15 16:17:56;;;;;;;9.50;7.57;;;;;;;22.65;40.67;101999.97;5305614;28;20017;-80
2022/07/15 16:20:28;;;;;;;14.63;12.93;;;;;;;22.87;40.31;101998.75;5308380;28;20475;-79
2022/07/15 16:23:03;;;;;;;11.52;8.43;;;;;;;22.86;40.30;101997.13;5309261;28;20023;-80
2022/07/15 16:25:36;;;;;;;5.78;3.78;;;;;;;22.87;41.00;101995.13;5311016;28;20053;-79
2022/07/15 16:28:11;;;;;;;6.18;1.92;;;;;;;22.78;40.73;101992.38;5287518;28;20468;-78
2022/07/15 16:30:45;;;;;;;2.88;1.80;;;;;;;22.89;40.23;101992.78;5293706;28;20025;-80
2022/07/15 16:33:18;;;;;;;6.22;2.20;;;;;;;22.77;40.44;101990.69;5301351;28;20464;-80
2022/07/15 16:35:49;;;;;;;3.90;1.58;;;;;;;22.90;40.88;101995.22;5306593;28;20021;-79
2022/07/15 16:38:21;;;;;;;3.00;1.45;;;;;;;22.92;41.51;101992.91;5291229;28;20536;-82
2022/07/15 16:40:52;;;;;;;6.00;1.42;;;;;;;23.15;41.82;101987.72;5308139;28;20490;-82
2022/07/15 16:43:23;;;;;;;3.47;1.98;;;;;;;23.31;41.42;101987.06;5307196;28;20020;-82
2022/07/15 16:45:54;;;;;;;4.00;2.05;;;;;;;23.46;40.77;101991.22;5294495;28;20024;-82
2022/07/15 16:48:26;;;;;;;4.53;1.90;;;;;;;23.14;40.76;101993.75;5295156;28;20031;-79
2022/07/15 16:50:57;;;;;;;4.10;2.00;;;;;;;23.22;41.16;101990.00;5297453;28;20047;-81
2022/07/15 16:53:29;;;;;;;5.05;2.13;;;;;;;22.99;41.26;101990.38;5308553;28;20020;-86
2022/07/15 16:56:00;;;;;;;2.63;1.83;;;;;;;22.61;41.11;101993.31;5303922;28;20468;-85
2022/07/15 16:58:31;;;;;;;4.97;2.33;;;;;;;22.47;41.88;101995.59;5301876;28;20099;-85
2022/07/15 17:01:02;;;;;;;3.55;1.77;;;;;;;22.60;42.10;101988.00;5302247;28;20024;-86
2022/07/15 17:03:34;;;;;;;4.65;1.80;;;;;;;22.73;42.00;101984.09;5293332;28;20031;-87
2022/07/15 17:06:05;;;;;;;3.97;1.98;;;;;;;22.96;41.98;101988.22;5302081;28;20020;-86
2022/07/15 17:08:36;;;;;;;7.05;4.00;;;;;;;22.92;42.35;101987.25;5307519;28;20023;-86
2022/07/15 17:11:08;;;;;;;5.72;1.77;;;;;;;22.82;41.93;101986.84;5297725;28;20206;-86
2022/07/15 17:13:39;;;;;;;3.80;2.30;;;;;;;22.81;43.05;101983.19;5301443;28;20038;-84
2022/07/15 17:16:11;;;;;;;3.50;2.53;;;;;;;22.62;43.53;101983.66;5307474;28;20356;-85
2022/07/15 17:18:42;;;;;;;3.88;2.30;;;;;;;22.56;44.08;101985.88;5306147;28;20024;-85
2022/07/15 17:21:13;;;;;;;3.08;2.10;;;;;;;22.50;43.86;101987.25;5306833;28;20471;-84
2022/07/15 17:23:44;;;;;;;3.65;1.92;;;;;;;22.30;43.67;101988.88;5286650;28;20052;-83
2022/07/15 17:26:17;;;;;;;2.65;1.85;;;;;;;22.31;43.11;101996.19;5305427;28;20113;-84
2022/07/15 17:28:48;;;;;;;4.53;2.33;;;;;;;22.65;43.47;101984.97;5305632;28;20077;-81
